sensor_id;sensor_type;location;lat;lon;timestamp;temperature;humidity
23335;DHT22;11839;48.598;8.870;2023-07-20T00:01:29;22.20;90.10
23335;DHT22;11839;48.598;8.870;2023-07-20T00:03:56;22.00;90.00
23335;DHT22;11839;48.598;8.870;2023-07-20T00:06:25;22.00;89.90
23335;DHT22;11839;48.598;8.870;2023-07-20T00:08:53;21.90;89.70
23335;DHT22;11839;48.598;8.870;2023-07-20T00:11:20;21.90;89.60
23335;DHT22;11839;48.598;8.870;2023-07-20T00:13:47;22.20;88.90
23335;DHT22;11839;48.598;8.870;2023-07-20T00:16:13;22.10;88.40
23335;DHT22;11839;48.598;8.870;2023-07-20T00:18:40;22.00;89.50
23335;DHT22;11839;48.598;8.870;2023-07-20T00:21:07;22.00;89.50
23335;DHT22;11839;48.598;8.870;2023-07-20T00:23:35;21.80;89.10
23335;DHT22;11839;48.598;8.870;2023-07-20T00:26:02;21.50;90.10
23335;DHT22;11839;48.598;8.870;2023-07-20T00:28:28;21.60;90.10
23335;DHT22;11839;48.598;8.870;2023-07-20T00:30:55;21.40;90.20
23335;DHT22;11839;48.598;8.870;2023-07-20T00:33:22;21.50;90.20
23335;DHT22;11839;48.598;8.870;2023-07-20T00:35:49;21.10;90.20
23335;DHT22;11839;48.598;8.870;2023-07-20T00:38:15;20.70;90.80
23335;DHT22;11839;48.598;8.870;2023-07-20T00:40:43;20.60;90.90
23335;DHT22;11839;48.598;8.870;2023-07-20T00:43:10;20.90;91.20
23335;DHT22;11839;48.598;8.870;2023-07-20T00:45:37;21.10;90.60
23335;DHT22;11839;48.598;8.870;2023-07-20T00:48:05;21.30;90.00
23335;DHT22;11839;48.598;8.870;2023-07-20T00:50:33;21.20;89.90
23335;DHT22;11839;48.598;8.870;2023-07-20T00:53:02;21.20;90.10
23335;DHT22;11839;48.598;8.870;2023-07-20T00:55:30;21.20;90.60
23335;DHT22;11839;48.598;8.870;2023-07-20T00:57:58;21.30;90.20
23335;DHT22;11839;48.598;8.870;2023-07-20T01:00:25;20.80;90.50
23335;DHT22;11839;48.598;8.870;2023-07-20T01:02:53;20.70;90.70
23335;DHT22;11839;48.598;8.870;2023-07-20T01:05:20;21.00;90.30
23335;DHT22;11839;48.598;8.870;2023-07-20T01:07:53;20.90;90.20
23335;DHT22;11839;48.598;8.870;2023-07-20T01:10:27;20.60;91.10
23335;DHT22;11839;48.598;8.870;2023-07-20T01:12:58;19.90;92.00
23335;DHT22;11839;48.598;8.870;2023-07-20T01:15:27;19.40;93.00
23335;DHT22;11839;48.598;8.870;2023-07-20T01:17:53;19.40;93.40
23335;DHT22;11839;48.598;8.870;2023-07-20T01:20:21;19.20;94.60
23335;DHT22;11839;48.598;8.870;2023-07-20T01:23:00;19.20;95.20
23335;DHT22;11839;48.598;8.870;2023-07-20T01:25:41;19.00;95.50
23335;DHT22;11839;48.598;8.870;2023-07-20T01:28:44;19.40;94.80
23335;DHT22;11839;48.598;8.870;2023-07-20T01:31:23;19.60;93.60
23335;DHT22;11839;48.598;8.870;2023-07-20T01:33:53;19.50;93.50
23335;DHT22;11839;48.598;8.870;2023-07-20T01:36:22;19.50;94.30
23335;DHT22;11839;48.598;8.870;2023-07-20T01:38:51;19.70;93.60
23335;DHT22;11839;48.598;8.870;2023-07-20T01:41:18;19.90;93.70
23335;DHT22;11839;48.598;8.870;2023-07-20T01:43:46;19.90;94.20
23335;DHT22;11839;48.598;8.870;2023-07-20T01:46:12;20.10;93.80
23335;DHT22;11839;48.598;8.870;2023-07-20T01:48:41;20.10;93.70
23335;DHT22;11839;48.598;8.870;2023-07-20T01:51:08;20.00;93.70
23335;DHT22;11839;48.598;8.870;2023-07-20T01:53:34;20.20;93.80
23335;DHT22;11839;48.598;8.870;2023-07-20T01:56:01;19.80;94.40
23335;DHT22;11839;48.598;8.870;2023-07-20T01:58:28;19.60;95.40
23335;DHT22;11839;48.598;8.870;2023-07-20T02:00:55;19.50;95.60
23335;DHT22;11839;48.598;8.870;2023-07-20T02:03:21;19.20;96.30
23335;DHT22;11839;48.598;8.870;2023-07-20T02:05:50;18.70;97.50
23335;DHT22;11839;48.598;8.870;2023-07-20T02:08:17;18.50;97.70
23335;DHT22;11839;48.598;8.870;2023-07-20T02:10:45;18.30;98.50
23335;DHT22;11839;48.598;8.870;2023-07-20T02:13:12;18.30;98.60
23335;DHT22;11839;48.598;8.870;2023-07-20T02:15:39;18.50;98.60
23335;DHT22;11839;48.598;8.870;2023-07-20T02:18:06;18.90;97.80
23335;DHT22;11839;48.598;8.870;2023-07-20T02:20:32;18.80;97.90
23335;DHT22;11839;48.598;8.870;2023-07-20T02:23:00;18.90;97.20
23335;DHT22;11839;48.598;8.870;2023-07-20T02:25:27;18.80;97.60
23335;DHT22;11839;48.598;8.870;2023-07-20T02:27:55;18.50;98.70
23335;DHT22;11839;48.598;8.870;2023-07-20T02:30:23;18.50;98.80
23335;DHT22;11839;48.598;8.870;2023-07-20T02:32:50;18.80;98.40
23335;DHT22;11839;48.598;8.870;2023-07-20T02:35:17;18.40;98.70
23335;DHT22;11839;48.598;8.870;2023-07-20T02:37:44;18.40;99.50
23335;DHT22;11839;48.598;8.870;2023-07-20T02:40:12;18.50;99.50
23335;DHT22;11839;48.598;8.870;2023-07-20T02:42:39;18.00;99.90
23335;DHT22;11839;48.598;8.870;2023-07-20T02:45:07;18.10;99.90
23335;DHT22;11839;48.598;8.870;2023-07-20T02:47:34;18.00;99.90
23335;DHT22;11839;48.598;8.870;2023-07-20T02:50:00;17.90;99.90
23335;DHT22;11839;48.598;8.870;2023-07-20T02:52:27;17.50;99.90
23335;DHT22;11839;48.598;8.870;2023-07-20T02:54:55;17.60;99.90
23335;DHT22;11839;48.598;8.870;2023-07-20T02:57:23;17.80;99.90
23335;DHT22;11839;48.598;8.870;2023-07-20T02:59:50;17.80;99.90
23335;DHT22;11839;48.598;8.870;2023-07-20T03:02:17;17.60;99.90
23335;DHT22;11839;48.598;8.870;2023-07-20T03:04:43;17.50;99.90
23335;DHT22;11839;48.598;8.870;2023-07-20T03:07:10;17.30;99.90
23335;DHT22;11839;48.598;8.870;2023-07-20T03:09:37;17.60;99.90
23335;DHT22;11839;48.598;8.870;2023-07-20T03:12:06;17.60;99.90
23335;DHT22;11839;48.598;8.870;2023-07-20T03:14:34;17.70;99.90
23335;DHT22;11839;48.598;8.870;2023-07-20T03:17:01;17.40;99.90
23335;DHT22;11839;48.598;8.870;2023-07-20T03:19:27;17.50;99.90
23335;DHT22;11839;48.598;8.870;2023-07-20T03:21:54;17.90;99.90
23335;DHT22;11839;48.598;8.870;2023-07-20T03:24:21;17.90;99.90
23335;DHT22;11839;48.598;8.870;2023-07-20T03:26:49;18.10;99.90
23335;DHT22;11839;48.598;8.870;2023-07-20T03:29:15;18.40;99.90
23335;DHT22;11839;48.598;8.870;2023-07-20T03:31:44;18.30;99.90
23335;DHT22;11839;48.598;8.870;2023-07-20T03:34:10;18.30;99.90
23335;DHT22;11839;48.598;8.870;2023-07-20T03:36:37;18.50;99.90
23335;DHT22;11839;48.598;8.870;2023-07-20T03:39:04;18.30;99.90
23335;DHT22;11839;48.598;8.870;2023-07-20T03:41:30;18.20;99.90
23335;DHT22;11839;48.598;8.870;2023-07-20T03:43:57;17.80;99.90
23335;DHT22;11839;48.598;8.870;2023-07-20T03:46:24;17.60;99.90
23335;DHT22;11839;48.598;8.870;2023-07-20T03:48:52;18.10;99.90
23335;DHT22;11839;48.598;8.870;2023-07-20T03:51:19;18.20;99.90
23335;DHT22;11839;48.598;8.870;2023-07-20T03:53:45;17.90;99.90
23335;DHT22;11839;48.598;8.870;2023-07-20T03:56:12;17.70;99.90
23335;DHT22;11839;48.598;8.870;2023-07-20T03:58:39;17.60;99.90
23335;DHT22;11839;48.598;8.870;2023-07-20T04:01:06;17.70;99.90
23335;DHT22;11839;48.598;8.870;2023-07-20T04:03:33;17.80;99.90
23335;DHT22;11839;48.598;8.870;2023-07-20T04:06:02;17.50;99.90
23335;DHT22;11839;48.598;8.870;2023-07-20T04:08:29;17.00;99.90
23335;DHT22;11839;48.598;8.870;2023-07-20T04:10:56;17.30;99.90
23335;DHT22;11839;48.598;8.870;2023-07-20T04:13:23;17.40;99.90
23335;DHT22;11839;48.598;8.870;2023-07-20T04:15:50;17.50;99.90
23335;DHT22;11839;48.598;8.870;2023-07-20T04:18:16;17.60;99.90
23335;DHT22;11839;48.598;8.870;2023-07-20T04:20:43;17.40;99.90
23335;DHT22;11839;48.598;8.870;2023-07-20T04:23:11;17.50;99.90
23335;DHT22;11839;48.598;8.870;2023-07-20T04:25:39;17.40;99.90
23335;DHT22;11839;48.598;8.870;2023-07-20T04:28:06;17.60;99.90
23335;DHT22;11839;48.598;8.870;2023-07-20T04:30:38;17.70;99.90
23335;DHT22;11839;48.598;8.870;2023-07-20T04:33:05;17.80;99.90
23335;DHT22;11839;48.598;8.870;2023-07-20T04:35:47;17.90;99.90
23335;DHT22;11839;48.598;8.870;2023-07-20T04:38:16;18.10;99.90
23335;DHT22;11839;48.598;8.870;2023-07-20T04:40:44;18.30;99.90
23335;DHT22;11839;48.598;8.870;2023-07-20T04:43:11;18.50;99.90
23335;DHT22;11839;48.598;8.870;2023-07-20T04:45:38;18.50;99.90
23335;DHT22;11839;48.598;8.870;2023-07-20T04:48:08;18.50;99.90
23335;DHT22;11839;48.598;8.870;2023-07-20T04:50:35;18.40;99.90
23335;DHT22;11839;48.598;8.870;2023-07-20T04:53:02;18.30;99.90
23335;DHT22;11839;48.598;8.870;2023-07-20T04:55:31;18.10;99.90
23335;DHT22;11839;48.598;8.870;2023-07-20T04:57:59;18.60;99.90
23335;DHT22;11839;48.598;8.870;2023-07-20T05:00:26;18.70;99.90
23335;DHT22;11839;48.598;8.870;2023-07-20T05:02:52;18.70;99.90
23335;DHT22;11839;48.598;8.870;2023-07-20T05:05:19;18.70;99.90
23335;DHT22;11839;48.598;8.870;2023-07-20T05:07:46;18.70;99.90
23335;DHT22;11839;48.598;8.870;2023-07-20T05:10:13;18.90;99.90
23335;DHT22;11839;48.598;8.870;2023-07-20T05:12:41;19.20;99.90
23335;DHT22;11839;48.598;8.870;2023-07-20T05:15:08;19.70;99.90
23335;DHT22;11839;48.598;8.870;2023-07-20T05:17:35;20.20;99.90
23335;DHT22;11839;48.598;8.870;2023-07-20T05:20:02;20.10;99.90
23335;DHT22;11839;48.598;8.870;2023-07-20T05:22:30;20.40;99.90
23335;DHT22;11839;48.598;8.870;2023-07-20T05:24:57;20.70;99.90
23335;DHT22;11839;48.598;8.870;2023-07-20T05:27:23;20.90;99.90
23335;DHT22;11839;48.598;8.870;2023-07-20T05:29:51;21.00;99.90
23335;DHT22;11839;48.598;8.870;2023-07-20T05:32:18;21.00;99.90
23335;DHT22;11839;48.598;8.870;2023-07-20T05:34:45;21.50;99.90
23335;DHT22;11839;48.598;8.870;2023-07-20T05:37:12;21.80;99.90
23335;DHT22;11839;48.598;8.870;2023-07-20T05:39:39;21.70;99.20
23335;DHT22;11839;48.598;8.870;2023-07-20T05:42:05;21.80;99.50
23335;DHT22;11839;48.598;8.870;2023-07-20T05:44:32;21.70;99.70
23335;DHT22;11839;48.598;8.870;2023-07-20T05:47:00;22.00;99.40
23335;DHT22;11839;48.598;8.870;2023-07-20T05:49:28;22.20;99.40
23335;DHT22;11839;48.598;8.870;2023-07-20T05:51:55;21.90;99.70
23335;DHT22;11839;48.598;8.870;2023-07-20T05:54:23;22.20;99.30
23335;DHT22;11839;48.598;8.870;2023-07-20T05:56:50;22.40;99.10
23335;DHT22;11839;48.598;8.870;2023-07-20T05:59:17;22.70;98.80
23335;DHT22;11839;48.598;8.870;2023-07-20T06:01:45;22.60;98.30
23335;DHT22;11839;48.598;8.870;2023-07-20T06:04:13;22.70;98.10
23335;DHT22;11839;48.598;8.870;2023-07-20T06:06:40;22.40;97.80
23335;DHT22;11839;48.598;8.870;2023-07-20T06:09:07;22.60;98.10
23335;DHT22;11839;48.598;8.870;2023-07-20T06:11:37;22.70;97.90
23335;DHT22;11839;48.598;8.870;2023-07-20T06:14:04;22.70;97.60
23335;DHT22;11839;48.598;8.870;2023-07-20T06:16:31;22.40;98.30
23335;DHT22;11839;48.598;8.870;2023-07-20T06:18:59;22.40;98.60
23335;DHT22;11839;48.598;8.870;2023-07-20T06:21:27;22.50;98.80
23335;DHT22;11839;48.598;8.870;2023-07-20T06:23:54;22.70;98.30
23335;DHT22;11839;48.598;8.870;2023-07-20T06:26:21;22.80;98.20
23335;DHT22;11839;48.598;8.870;2023-07-20T06:28:48;22.90;98.00
23335;DHT22;11839;48.598;8.870;2023-07-20T06:31:14;23.00;97.90
23335;DHT22;11839;48.598;8.870;2023-07-20T06:33:41;22.70;97.50
23335;DHT22;11839;48.598;8.870;2023-07-20T06:36:08;22.40;97.60
23335;DHT22;11839;48.598;8.870;2023-07-20T06:38:36;22.60;97.50
23335;DHT22;11839;48.598;8.870;2023-07-20T06:41:03;22.60;97.70
23335;DHT22;11839;48.598;8.870;2023-07-20T06:43:30;22.80;97.10
23335;DHT22;11839;48.598;8.870;2023-07-20T06:45:56;23.10;96.20
23335;DHT22;11839;48.598;8.870;2023-07-20T06:48:23;23.00;95.80
23335;DHT22;11839;48.598;8.870;2023-07-20T06:50:50;23.00;96.00
23335;DHT22;11839;48.598;8.870;2023-07-20T06:53:17;23.10;95.50
23335;DHT22;11839;48.598;8.870;2023-07-20T06:55:45;23.20;95.20
23335;DHT22;11839;48.598;8.870;2023-07-20T06:58:12;23.30;95.30
23335;DHT22;11839;48.598;8.870;2023-07-20T07:00:38;23.50;95.30
23335;DHT22;11839;48.598;8.870;2023-07-20T07:03:05;23.70;94.50
23335;DHT22;11839;48.598;8.870;2023-07-20T07:05:36;23.70;94.60
23335;DHT22;11839;48.598;8.870;2023-07-20T07:08:04;23.60;95.00
23335;DHT22;11839;48.598;8.870;2023-07-20T07:10:31;23.50;95.10
23335;DHT22;11839;48.598;8.870;2023-07-20T07:12:59;23.60;94.60
23335;DHT22;11839;48.598;8.870;2023-07-20T07:15:26;23.50;94.60
23335;DHT22;11839;48.598;8.870;2023-07-20T07:17:53;23.40;95.00
23335;DHT22;11839;48.598;8.870;2023-07-20T07:20:20;23.60;94.70
23335;DHT22;11839;48.598;8.870;2023-07-20T07:22:47;23.80;94.10
23335;DHT22;11839;48.598;8.870;2023-07-20T07:25:13;23.90;93.80
23335;DHT22;11839;48.598;8.870;2023-07-20T07:27:41;24.10;93.80
23335;DHT22;11839;48.598;8.870;2023-07-20T07:30:10;24.40;93.50
23335;DHT22;11839;48.598;8.870;2023-07-20T07:32:37;24.20;92.90
23335;DHT22;11839;48.598;8.870;2023-07-20T07:35:04;24.20;93.70
23335;DHT22;11839;48.598;8.870;2023-07-20T07:37:31;24.40;93.30
23335;DHT22;11839;48.598;8.870;2023-07-20T07:39:58;24.80;92.60
23335;DHT22;11839;48.598;8.870;2023-07-20T07:42:25;24.50;91.90
23335;DHT22;11839;48.598;8.870;2023-07-20T07:44:51;24.50;92.30
23335;DHT22;11839;48.598;8.870;2023-07-20T07:47:19;24.40;92.10
23335;DHT22;11839;48.598;8.870;2023-07-20T07:49:46;24.60;92.20
23335;DHT22;11839;48.598;8.870;2023-07-20T07:52:13;25.10;91.60
23335;DHT22;11839;48.598;8.870;2023-07-20T07:54:40;25.50;90.70
23335;DHT22;11839;48.598;8.870;2023-07-20T07:57:07;25.80;90.40
23335;DHT22;11839;48.598;8.870;2023-07-20T07:59:34;25.70;90.30
23335;DHT22;11839;48.598;8.870;2023-07-20T08:02:02;25.80;90.30
23335;DHT22;11839;48.598;8.870;2023-07-20T08:04:30;26.00;89.70
23335;DHT22;11839;48.598;8.870;2023-07-20T08:06:58;26.00;85.80
23335;DHT22;11839;48.598;8.870;2023-07-20T08:09:25;26.30;85.70
23335;DHT22;11839;48.598;8.870;2023-07-20T08:11:52;26.20;85.60
23335;DHT22;11839;48.598;8.870;2023-07-20T08:14:19;25.90;86.80
23335;DHT22;11839;48.598;8.870;2023-07-20T08:16:46;25.90;87.30
23335;DHT22;11839;48.598;8.870;2023-07-20T08:19:13;25.40;87.80
23335;DHT22;11839;48.598;8.870;2023-07-20T08:21:41;24.80;88.30
23335;DHT22;11839;48.598;8.870;2023-07-20T08:24:08;24.50;89.20
23335;DHT22;11839;48.598;8.870;2023-07-20T08:26:35;24.40;89.70
23335;DHT22;11839;48.598;8.870;2023-07-20T08:29:01;24.70;89.40
23335;DHT22;11839;48.598;8.870;2023-07-20T08:31:28;24.70;89.30
23335;DHT22;11839;48.598;8.870;2023-07-20T08:33:55;25.00;88.20
23335;DHT22;11839;48.598;8.870;2023-07-20T08:36:22;25.00;88.00
23335;DHT22;11839;48.598;8.870;2023-07-20T08:38:50;24.70;87.50
23335;DHT22;11839;48.598;8.870;2023-07-20T08:41:17;24.70;86.80
23335;DHT22;11839;48.598;8.870;2023-07-20T08:43:46;24.70;86.00
23335;DHT22;11839;48.598;8.870;2023-07-20T08:46:13;24.70;87.30
23335;DHT22;11839;48.598;8.870;2023-07-20T08:48:41;24.40;87.60
23335;DHT22;11839;48.598;8.870;2023-07-20T08:51:09;23.90;88.00
23335;DHT22;11839;48.598;8.870;2023-07-20T08:53:38;24.00;88.30
23335;DHT22;11839;48.598;8.870;2023-07-20T08:56:06;23.80;88.70
23335;DHT22;11839;48.598;8.870;2023-07-20T08:58:36;24.50;86.50
23335;DHT22;11839;48.598;8.870;2023-07-20T09:01:04;25.30;83.00
23335;DHT22;11839;48.598;8.870;2023-07-20T09:03:31;25.40;82.60
23335;DHT22;11839;48.598;8.870;2023-07-20T09:05:58;25.00;80.70
23335;DHT22;11839;48.598;8.870;2023-07-20T09:08:25;24.70;81.80
23335;DHT22;11839;48.598;8.870;2023-07-20T09:10:52;25.10;79.50
23335;DHT22;11839;48.598;8.870;2023-07-20T09:13:20;25.80;77.00
23335;DHT22;11839;48.598;8.870;2023-07-20T09:15:53;26.30;75.20
23335;DHT22;11839;48.598;8.870;2023-07-20T09:18:24;26.60;73.60
23335;DHT22;11839;48.598;8.870;2023-07-20T09:20:51;26.40;71.50
23335;DHT22;11839;48.598;8.870;2023-07-20T09:23:18;26.50;71.40
23335;DHT22;11839;48.598;8.870;2023-07-20T09:25:46;26.80;71.00
23335;DHT22;11839;48.598;8.870;2023-07-20T09:28:16;26.40;73.30
23335;DHT22;11839;48.598;8.870;2023-07-20T09:30:44;25.90;76.10
23335;DHT22;11839;48.598;8.870;2023-07-20T09:33:18;25.90;77.10
23335;DHT22;11839;48.598;8.870;2023-07-20T09:35:46;26.10;76.30
23335;DHT22;11839;48.598;8.870;2023-07-20T09:38:14;26.50;74.80
23335;DHT22;11839;48.598;8.870;2023-07-20T09:40:41;26.90;72.80
23335;DHT22;11839;48.598;8.870;2023-07-20T09:43:08;27.00;71.10
23335;DHT22;11839;48.598;8.870;2023-07-20T09:45:39;27.30;69.00
23335;DHT22;11839;48.598;8.870;2023-07-20T09:48:09;27.30;69.00
23335;DHT22;11839;48.598;8.870;2023-07-20T09:50:39;27.90;68.30
23335;DHT22;11839;48.598;8.870;2023-07-20T09:53:09;28.10;67.20
23335;DHT22;11839;48.598;8.870;2023-07-20T09:55:39;27.80;68.30
23335;DHT22;11839;48.598;8.870;2023-07-20T09:58:06;28.00;66.80
23335;DHT22;11839;48.598;8.870;2023-07-20T10:00:35;27.80;66.20
23335;DHT22;11839;48.598;8.870;2023-07-20T10:03:03;27.60;67.50
23335;DHT22;11839;48.598;8.870;2023-07-20T10:05:33;27.30;67.70
23335;DHT22;11839;48.598;8.870;2023-07-20T10:08:01;27.40;68.00
23335;DHT22;11839;48.598;8.870;2023-07-20T10:10:33;27.50;64.80
23335;DHT22;11839;48.598;8.870;2023-07-20T10:13:00;27.20;64.10
23335;DHT22;11839;48.598;8.870;2023-07-20T10:15:30;27.30;65.70
23335;DHT22;11839;48.598;8.870;2023-07-20T10:18:03;27.20;65.50
23335;DHT22;11839;48.598;8.870;2023-07-20T10:20:36;26.50;69.00
23335;DHT22;11839;48.598;8.870;2023-07-20T10:23:04;26.50;68.50
23335;DHT22;11839;48.598;8.870;2023-07-20T10:25:31;25.60;69.10
23335;DHT22;11839;48.598;8.870;2023-07-20T10:28:04;25.20;69.90
23335;DHT22;11839;48.598;8.870;2023-07-20T10:30:31;26.10;69.10
23335;DHT22;11839;48.598;8.870;2023-07-20T10:32:59;27.00;67.00
23335;DHT22;11839;48.598;8.870;2023-07-20T10:35:29;27.00;63.10
23335;DHT22;11839;48.598;8.870;2023-07-20T10:38:01;26.50;67.10
23335;DHT22;11839;48.598;8.870;2023-07-20T10:40:30;26.50;69.10
23335;DHT22;11839;48.598;8.870;2023-07-20T10:42:59;26.40;68.90
23335;DHT22;11839;48.598;8.870;2023-07-20T10:45:33;25.90;67.70
23335;DHT22;11839;48.598;8.870;2023-07-20T10:48:03;25.40;67.90
23335;DHT22;11839;48.598;8.870;2023-07-20T10:50:32;25.30;68.60
23335;DHT22;11839;48.598;8.870;2023-07-20T10:53:12;25.80;67.80
23335;DHT22;11839;48.598;8.870;2023-07-20T10:55:39;26.50;66.30
23335;DHT22;11839;48.598;8.870;2023-07-20T10:58:07;26.50;66.20
23335;DHT22;11839;48.598;8.870;2023-07-20T11:00:34;26.60;67.70
23335;DHT22;11839;48.598;8.870;2023-07-20T11:03:01;26.40;67.40
23335;DHT22;11839;48.598;8.870;2023-07-20T11:05:33;26.60;64.40
23335;DHT22;11839;48.598;8.870;2023-07-20T11:08:00;26.90;62.50
23335;DHT22;11839;48.598;8.870;2023-07-20T11:10:30;27.50;63.00
23335;DHT22;11839;48.598;8.870;2023-07-20T11:13:17;27.60;63.30
23335;DHT22;11839;48.598;8.870;2023-07-20T11:15:47;26.60;66.00
23335;DHT22;11839;48.598;8.870;2023-07-20T11:18:15;26.70;65.80
23335;DHT22;11839;48.598;8.870;2023-07-20T11:20:41;26.80;66.30
23335;DHT22;11839;48.598;8.870;2023-07-20T11:23:09;27.20;66.10
23335;DHT22;11839;48.598;8.870;2023-07-20T11:25:39;27.70;65.40
23335;DHT22;11839;48.598;8.870;2023-07-20T11:28:08;27.30;64.20
23335;DHT22;11839;48.598;8.870;2023-07-20T11:30:36;26.20;65.40
23335;DHT22;11839;48.598;8.870;2023-07-20T11:33:03;25.60;65.80
23335;DHT22;11839;48.598;8.870;2023-07-20T11:35:30;25.90;66.00
23335;DHT22;11839;48.598;8.870;2023-07-20T11:37:57;26.50;65.50
23335;DHT22;11839;48.598;8.870;2023-07-20T11:40:24;27.70;64.30
23335;DHT22;11839;48.598;8.870;2023-07-20T11:42:52;27.80;62.90
23335;DHT22;11839;48.598;8.870;2023-07-20T11:45:19;27.20;64.10
23335;DHT22;11839;48.598;8.870;2023-07-20T11:47:46;27.00;65.60
23335;DHT22;11839;48.598;8.870;2023-07-20T11:50:13;27.40;65.20
23335;DHT22;11839;48.598;8.870;2023-07-20T11:52:40;27.30;64.20
23335;DHT22;11839;48.598;8.870;2023-07-20T11:55:08;27.10;62.70
23335;DHT22;11839;48.598;8.870;2023-07-20T11:57:34;27.60;61.70
23335;DHT22;11839;48.598;8.870;2023-07-20T12:00:04;28.00;60.50
23335;DHT22;11839;48.598;8.870;2023-07-20T12:02:34;28.10;62.10
23335;DHT22;11839;48.598;8.870;2023-07-20T12:05:02;28.10;61.90
23335;DHT22;11839;48.598;8.870;2023-07-20T12:07:32;27.90;61.20
23335;DHT22;11839;48.598;8.870;2023-07-20T12:10:05;26.70;62.20
23335;DHT22;11839;48.598;8.870;2023-07-20T12:12:32;26.50;63.60
23335;DHT22;11839;48.598;8.870;2023-07-20T12:15:17;26.50;63.60
23335;DHT22;11839;48.598;8.870;2023-07-20T12:17:44;26.50;63.00
23335;DHT22;11839;48.598;8.870;2023-07-20T12:20:12;26.20;62.40
23335;DHT22;11839;48.598;8.870;2023-07-20T12:22:39;26.20;61.80
23335;DHT22;11839;48.598;8.870;2023-07-20T12:25:07;26.70;63.00
23335;DHT22;11839;48.598;8.870;2023-07-20T12:27:36;27.30;61.90
23335;DHT22;11839;48.598;8.870;2023-07-20T12:30:04;27.30;60.70
23335;DHT22;11839;48.598;8.870;2023-07-20T12:32:34;27.70;62.20
23335;DHT22;11839;48.598;8.870;2023-07-20T12:35:01;27.30;60.80
23335;DHT22;11839;48.598;8.870;2023-07-20T12:37:28;26.50;62.70
23335;DHT22;11839;48.598;8.870;2023-07-20T12:39:55;25.90;63.00
23335;DHT22;11839;48.598;8.870;2023-07-20T12:42:21;26.20;64.10
23335;DHT22;11839;48.598;8.870;2023-07-20T12:44:49;26.90;61.90
23335;DHT22;11839;48.598;8.870;2023-07-20T12:47:16;27.30;62.20
23335;DHT22;11839;48.598;8.870;2023-07-20T12:49:45;27.60;61.50
23335;DHT22;11839;48.598;8.870;2023-07-20T12:52:12;27.10;60.60
23335;DHT22;11839;48.598;8.870;2023-07-20T12:54:39;26.90;60.90
23335;DHT22;11839;48.598;8.870;2023-07-20T12:57:06;26.30;61.20
23335;DHT22;11839;48.598;8.870;2023-07-20T12:59:33;26.50;61.70
23335;DHT22;11839;48.598;8.870;2023-07-20T13:02:00;26.50;61.40
23335;DHT22;11839;48.598;8.870;2023-07-20T13:04:27;27.00;62.00
23335;DHT22;11839;48.598;8.870;2023-07-20T13:06:58;27.50;60.60
23335;DHT22;11839;48.598;8.870;2023-07-20T13:09:30;28.70;59.50
23335;DHT22;11839;48.598;8.870;2023-07-20T13:11:57;28.80;59.60
23335;DHT22;11839;48.598;8.870;2023-07-20T13:14:23;28.30;61.10
23335;DHT22;11839;48.598;8.870;2023-07-20T13:16:50;28.50;61.30
23335;DHT22;11839;48.598;8.870;2023-07-20T13:19:17;28.30;60.10
23335;DHT22;11839;48.598;8.870;2023-07-20T13:21:44;27.60;60.70
23335;DHT22;11839;48.598;8.870;2023-07-20T13:24:12;27.40;62.50
23335;DHT22;11839;48.598;8.870;2023-07-20T13:26:39;27.80;61.40
23335;DHT22;11839;48.598;8.870;2023-07-20T13:29:05;28.00;60.50
23335;DHT22;11839;48.598;8.870;2023-07-20T13:31:32;28.50;59.80
23335;DHT22;11839;48.598;8.870;2023-07-20T13:33:59;30.00;59.00
23335;DHT22;11839;48.598;8.870;2023-07-20T13:36:26;31.40;56.80
23335;DHT22;11839;48.598;8.870;2023-07-20T13:38:53;31.10;56.10
23335;DHT22;11839;48.598;8.870;2023-07-20T13:41:21;30.20;56.50
23335;DHT22;11839;48.598;8.870;2023-07-20T13:43:48;30.70;57.80
23335;DHT22;11839;48.598;8.870;2023-07-20T13:46:14;31.60;56.60
23335;DHT22;11839;48.598;8.870;2023-07-20T13:48:41;32.30;54.70
23335;DHT22;11839;48.598;8.870;2023-07-20T13:51:08;32.50;55.90
23335;DHT22;11839;48.598;8.870;2023-07-20T13:53:35;32.50;54.70
23335;DHT22;11839;48.598;8.870;2023-07-20T13:56:02;33.20;53.90
23335;DHT22;11839;48.598;8.870;2023-07-20T13:58:31;33.80;52.50
23335;DHT22;11839;48.598;8.870;2023-07-20T14:00:58;34.60;51.90
23335;DHT22;11839;48.598;8.870;2023-07-20T14:03:24;34.50;50.00
23335;DHT22;11839;48.598;8.870;2023-07-20T14:05:51;32.40;52.00
23335;DHT22;11839;48.598;8.870;2023-07-20T14:08:18;31.50;53.80
23335;DHT22;11839;48.598;8.870;2023-07-20T14:10:45;31.20;54.00
23335;DHT22;11839;48.598;8.870;2023-07-20T14:13:11;31.10;54.00
23335;DHT22;11839;48.598;8.870;2023-07-20T14:15:40;30.80;54.70
23335;DHT22;11839;48.598;8.870;2023-07-20T14:18:07;31.00;54.40
23335;DHT22;11839;48.598;8.870;2023-07-20T14:20:34;31.20;54.00
23335;DHT22;11839;48.598;8.870;2023-07-20T14:23:01;31.40;54.20
23335;DHT22;11839;48.598;8.870;2023-07-20T14:25:28;31.90;55.00
23335;DHT22;11839;48.598;8.870;2023-07-20T14:27:55;31.90;53.70
23335;DHT22;11839;48.598;8.870;2023-07-20T14:30:22;32.10;54.50
23335;DHT22;11839;48.598;8.870;2023-07-20T14:32:50;33.30;52.50
23335;DHT22;11839;48.598;8.870;2023-07-20T14:35:17;33.00;53.10
23335;DHT22;11839;48.598;8.870;2023-07-20T14:37:45;33.20;53.10
23335;DHT22;11839;48.598;8.870;2023-07-20T14:40:13;33.10;52.20
23335;DHT22;11839;48.598;8.870;2023-07-20T14:42:39;32.40;51.70
23335;DHT22;11839;48.598;8.870;2023-07-20T14:45:06;32.20;52.50
23335;DHT22;11839;48.598;8.870;2023-07-20T14:47:34;31.50;52.20
23335;DHT22;11839;48.598;8.870;2023-07-20T14:50:02;31.40;54.10
23335;DHT22;11839;48.598;8.870;2023-07-20T14:52:29;31.80;53.30
23335;DHT22;11839;48.598;8.870;2023-07-20T14:54:56;31.00;53.40
23335;DHT22;11839;48.598;8.870;2023-07-20T14:57:23;30.90;53.80
23335;DHT22;11839;48.598;8.870;2023-07-20T14:59:50;31.10;54.40
23335;DHT22;11839;48.598;8.870;2023-07-20T15:02:17;30.10;56.00
23335;DHT22;11839;48.598;8.870;2023-07-20T15:04:48;30.00;56.70
23335;DHT22;11839;48.598;8.870;2023-07-20T15:07:16;29.60;56.50
23335;DHT22;11839;48.598;8.870;2023-07-20T15:09:43;29.30;57.40
23335;DHT22;11839;48.598;8.870;2023-07-20T15:12:10;29.30;57.60
23335;DHT22;11839;48.598;8.870;2023-07-20T15:14:40;29.20;57.50
23335;DHT22;11839;48.598;8.870;2023-07-20T15:17:07;28.50;57.90
23335;DHT22;11839;48.598;8.870;2023-07-20T15:19:33;28.00;58.90
23335;DHT22;11839;48.598;8.870;2023-07-20T15:22:01;28.10;58.60
23335;DHT22;11839;48.598;8.870;2023-07-20T15:24:29;28.80;58.30
23335;DHT22;11839;48.598;8.870;2023-07-20T15:26:56;29.00;57.50
23335;DHT22;11839;48.598;8.870;2023-07-20T15:29:23;28.20;59.20
23335;DHT22;11839;48.598;8.870;2023-07-20T15:31:50;27.80;59.70
23335;DHT22;11839;48.598;8.870;2023-07-20T15:34:17;27.20;60.90